Time;durP1;ratioP1;P1;durP2;ratioP2;P2;SDS_P1;SDS_P2;PMS_P1;PMS_P2;Temp;Humidity;BMP_temperature;BMP_pressure;BME280_temperature;BME280_humidity;BME280_pressure;Samples;Min_cycle;Max_cycle;Signal;HPM_P1;HPM_P2
2022/01/24 00:01:46;;;;;;;10.65;5.90;;;5.60;99.90;;;;;;6160696;23;20017;-83
2022/01/24 00:04:12;;;;;;;6.35;5.75;;;5.60;99.90;;;;;;6187544;23;20496;-83
2022/01/24 00:06:40;;;;;;;9.35;7.15;;;5.60;99.90;;;;;;6186494;23;20016;-83
2022/01/24 00:09:06;;;;;;;7.35;5.70;;;5.60;99.90;;;;;;6187704;23;20028;-83
2022/01/24 00:11:47;;;;;;;9.00;5.75;;;5.60;99.90;;;;;;6187380;23;20076;-83
2022/01/24 00:17:04;;;;;;;7.18;4.85;;;5.90;99.90;;;;;;6161207;23;20024;-83
2022/01/24 00:27:43;;;;;;;5.47;4.75;;;5.50;99.90;;;;;;6186757;23;20021;-84
2022/01/24 00:30:10;;;;;;;5.60;4.72;;;5.50;99.90;;;;;;6187709;23;20074;-84
2022/01/24 00:32:35;;;;;;;5.32;4.82;;;5.50;99.90;;;;;;6161145;23;20148;-84
2022/01/24 00:35:01;;;;;;;6.15;5.07;;;5.50;99.90;;;;;;6135286;23;20544;-84
2022/01/24 00:37:30;;;;;;;6.90;5.25;;;5.50;99.90;;;;;;6161390;23;20040;-84
2022/01/24 00:39:58;;;;;;;9.27;4.63;;;5.50;99.90;;;;;;6161202;23;20093;-84
2022/01/24 00:42:41;;;;;;;5.43;4.65;;;5.70;99.90;;;;;;6186465;23;20450;-83
2022/01/24 00:45:17;;;;;;;6.47;5.07;;;5.50;99.90;;;;;;6187557;23;20055;-84
2022/01/24 00:55:58;;;;;;;6.68;4.80;;;5.40;99.90;;;;;;6159909;23;20021;-83
2022/01/24 00:58:24;;;;;;;7.25;4.22;;;5.40;99.90;;;;;;6160677;23;20025;-84
2022/01/24 01:00:50;;;;;;;7.18;4.63;;;5.40;99.90;;;;;;6160759;23;20024;-84
2022/01/24 01:03:17;;;;;;;5.03;4.53;;;5.40;99.90;;;;;;6159764;23;20017;-83
2022/01/24 01:05:59;;;;;;;5.18;4.47;;;5.70;99.90;;;;;;6160853;23;20095;-84
2022/01/24 01:19:05;;;;;;;5.40;4.50;;;5.40;99.90;;;;;;6186215;23;20017;-84
2022/01/24 01:21:31;;;;;;;7.03;4.10;;;5.50;99.90;;;;;;6160535;23;20143;-84
2022/01/24 01:23:58;;;;;;;6.20;4.63;;;5.30;99.90;;;;;;6159957;23;20052;-84
2022/01/24 01:26:37;;;;;;;5.65;4.22;;;5.40;99.90;;;;;;6135964;23;20051;-84
2022/01/24 01:29:09;;;;;;;7.35;4.13;;;5.30;99.90;;;;;;6187572;23;20048;-84
2022/01/24 01:55:36;;;;;;;5.82;4.50;;;5.20;99.90;;;;;;6160151;23;20447;-84
2022/01/24 01:57:57;;;;;;;5.03;4.53;;;5.20;99.90;;;;;;6186009;23;20079;-84
2022/01/24 02:00:23;;;;;;;9.10;6.05;;;5.60;99.90;;;;;;6185863;23;20092;-84
2022/01/24 02:02:49;;;;;;;4.97;4.45;;;5.30;99.90;;;;;;6135514;23;20384;-84
2022/01/24 02:05:15;;;;;;;7.57;5.13;;;5.20;99.90;;;;;;6160353;23;20021;-84
2022/01/24 02:07:59;;;;;;;5.15;3.95;;;5.30;99.90;;;;;;6159424;23;20096;-84
2022/01/24 02:10:25;;;;;;;6.43;5.10;;;5.20;99.90;;;;;;6185789;23;20021;-84
2022/01/24 02:12:54;;;;;;;5.97;4.60;;;5.40;99.90;;;;;;6160018;23;20025;-84
2022/01/24 02:18:16;;;;;;;5.80;4.78;;;5.20;99.90;;;;;;6160102;23;20025;-84
2022/01/24 02:25:54;;;;;;;6.47;4.82;;;5.20;99.90;;;;;;6160074;23;20091;-83
2022/01/24 02:28:22;;;;;;;8.00;5.60;;;5.40;99.90;;;;;;6159085;23;20092;-84
2022/01/24 02:33:18;;;;;;;5.63;4.60;;;5.50;99.90;;;;;;6186572;23;20344;-84
2022/01/24 02:35:45;;;;;;;7.35;5.07;;;5.20;99.90;;;;;;6185179;23;20049;-84
2022/01/24 02:38:31;;;;;;;6.55;5.55;;;5.20;99.90;;;;;;6159872;23;20028;-84
2022/01/24 02:49:11;;;;;;;8.68;5.47;;;5.20;99.90;;;;;;6158705;23;20021;-84
2022/01/24 02:54:03;;;;;;;5.95;4.78;;;5.10;99.90;;;;;;6159528;23;20095;-84
2022/01/24 02:56:28;;;;;;;6.68;5.60;;;5.10;99.90;;;;;;6158963;23;20027;-84
2022/01/24 02:58:54;;;;;;;7.75;5.78;;;5.20;99.90;;;;;;6159535;23;20017;-84
2022/01/24 03:01:20;;;;;;;8.13;5.70;;;5.70;99.90;;;;;;6159766;23;20345;-84
2022/01/24 03:03:45;;;;;;;10.73;5.70;;;5.10;99.90;;;;;;6185258;23;20017;-84
2022/01/24 03:06:11;;;;;;;9.20;6.05;;;5.10;99.90;;;;;;6160258;23;20020;-84
2022/01/24 03:08:39;;;;;;;7.97;6.40;;;5.20;99.90;;;;;;6159151;23;20013;-84
2022/01/24 03:11:05;;;;;;;8.30;6.47;;;5.10;99.90;;;;;;6158791;23;20028;-84
2022/01/24 03:13:33;;;;;;;9.32;6.85;;;5.10;99.90;;;;;;6135149;23;20333;-84
2022/01/24 03:16:00;;;;;;;9.20;6.65;;;5.10;99.90;;;;;;6186351;23;20012;-84
2022/01/24 03:18:27;;;;;;;9.48;6.78;;;5.10;99.90;;;;;;6158739;23;20021;-84
2022/01/24 03:20:53;;;;;;;9.32;7.68;;;5.10;99.90;;;;;;6159610;23;20021;-84
2022/01/24 03:23:21;;;;;;;10.27;7.93;;;5.20;99.90;;;;;;6158975;23;20438;-84
2022/01/24 03:25:48;;;;;;;8.73;7.50;;;5.10;99.90;;;;;;6158550;23;20353;-84
2022/01/24 03:28:14;;;;;;;10.98;7.80;;;5.20;99.90;;;;;;6186133;23;20075;-84
2022/01/24 03:30:41;;;;;;;9.95;7.38;;;5.30;99.90;;;;;;6185325;23;20031;-84
2022/01/24 03:33:08;;;;;;;12.15;8.20;;;5.20;99.90;;;;;;6185917;23;20021;-84
2022/01/24 03:35:34;;;;;;;10.35;8.02;;;5.10;99.90;;;;;;6159566;23;20020;-84
2022/01/24 03:38:01;;;;;;;11.30;8.10;;;5.10;99.90;;;;;;6158558;23;20056;-84
2022/01/24 03:40:27;;;;;;;11.77;8.20;;;5.10;99.90;;;;;;6159306;23;20009;-84
2022/01/24 03:42:53;;;;;;;10.63;8.15;;;5.10;99.90;;;;;;6159448;23;20017;-84
2022/01/24 03:45:25;;;;;;;11.15;8.50;;;5.10;99.90;;;;;;6158273;23;20017;-84
2022/01/24 03:48:08;;;;;;;12.25;9.70;;;5.10;99.90;;;;;;6159804;23;20021;-84
2022/01/24 03:50:34;;;;;;;10.95;8.65;;;5.10;99.90;;;;;;6159717;23;20101;-84
2022/01/24 03:53:00;;;;;;;14.82;8.15;;;5.10;99.90;;;;;;6158202;23;20021;-84
2022/01/24 03:55:26;;;;;;;12.25;8.93;;;5.10;99.90;;;;;;6159214;23;20464;-84
2022/01/24 03:57:51;;;;;;;11.90;9.48;;;5.10;99.90;;;;;;6159387;23;20021;-84
2022/01/24 04:00:17;;;;;;;10.82;8.93;;;5.10;99.90;;;;;;6158283;23;20318;-84
2022/01/24 04:02:43;;;;;;;12.88;9.05;;;5.10;99.90;;;;;;6159400;23;20136;-84
2022/01/24 04:05:09;;;;;;;13.13;9.88;;;5.20;99.90;;;;;;6185908;23;20076;-84
2022/01/24 04:07:35;;;;;;;19.23;10.27;;;5.10;99.90;;;;;;6158426;23;20021;-84
2022/01/24 04:10:07;;;;;;;13.70;9.68;;;5.10;99.90;;;;;;6153701;23;20060;-84
2022/01/24 04:12:35;;;;;;;14.80;9.93;;;5.10;99.90;;;;;;6154288;23;20029;-84
2022/01/24 04:18:13;;;;;;;12.77;9.35;;;5.10;99.90;;;;;;6121784;23;20028;-83
2022/01/24 04:23:23;;;;;;;12.20;9.57;;;5.00;99.90;;;;;;6154331;23;20022;-84
2022/01/24 04:25:49;;;;;;;13.55;9.70;;;5.10;99.90;;;;;;6154026;23;20072;-84
2022/01/24 04:28:15;;;;;;;16.10;9.88;;;5.20;99.90;;;;;;6153427;23;20022;-84
2022/01/24 04:30:40;;;;;;;13.38;10.32;;;5.10;99.90;;;;;;6154393;23;20151;-84
2022/01/24 04:33:06;;;;;;;13.20;10.50;;;5.00;99.90;;;;;;6154192;23;20342;-84
2022/01/24 04:35:32;;;;;;;13.57;10.07;;;5.00;99.90;;;;;;6156849;23;20056;-84
2022/01/24 04:37:57;;;;;;;16.08;11.05;;;5.00;99.90;;;;;;6156056;23;20048;-84
2022/01/24 04:40:25;;;;;;;14.82;9.95;;;5.00;99.90;;;;;;6156055;23;20021;-84
2022/01/24 04:43:00;;;;;;;13.75;10.43;;;5.00;99.90;;;;;;6130360;23;20023;-84
2022/01/24 04:56:00;;;;;;;15.23;12.00;;;5.10;99.90;;;;;;6155400;23;20060;-84
2022/01/24 04:58:25;;;;;;;17.67;10.43;;;5.00;99.90;;;;;;6131527;23;20021;-84
2022/01/24 05:00:51;;;;;;;13.52;10.23;;;5.10;99.90;;;;;;6155907;23;20017;-84
2022/01/24 05:03:17;;;;;;;12.55;9.68;;;5.00;99.90;;;;;;6154782;23;20040;-84
2022/01/24 05:05:43;;;;;;;14.07;10.80;;;5.00;99.90;;;;;;6155907;23;20025;-84
2022/01/24 05:08:10;;;;;;;13.55;10.18;;;5.00;99.90;;;;;;6155916;23;20016;-84
2022/01/24 05:10:42;;;;;;;16.25;10.30;;;5.50;99.90;;;;;;6154571;23;20024;-84
2022/01/24 05:24:09;;;;;;;13.60;10.55;;;5.00;99.90;;;;;;6126809;23;20134;-84
2022/01/24 05:26:34;;;;;;;11.93;9.73;;;5.60;99.90;;;;;;6157170;23;20041;-84
2022/01/24 05:29:00;;;;;;;16.67;10.43;;;5.50;99.90;;;;;;6155525;23;20466;-84
2022/01/24 05:31:26;;;;;;;12.23;9.48;;;5.00;99.90;;;;;;6154728;23;20021;-84
2022/01/24 05:33:51;;;;;;;13.70;9.32;;;5.00;99.90;;;;;;6155385;23;20022;-84
2022/01/24 05:36:17;;;;;;;13.85;10.90;;;4.90;99.90;;;;;;6157039;23;20017;-84
2022/01/24 05:38:43;;;;;;;13.52;10.15;;;5.00;99.90;;;;;;6154388;23;20101;-84
2022/01/24 05:41:09;;;;;;;13.20;9.73;;;5.00;99.90;;;;;;6155513;23;20045;-84
2022/01/24 05:43:35;;;;;;;14.00;10.70;;;5.00;99.90;;;;;;6155378;23;20017;-84
2022/01/24 05:46:01;;;;;;;11.10;8.85;;;5.00;99.90;;;;;;6153998;23;20393;-84
2022/01/24 05:48:27;;;;;;;12.35;9.82;;;5.30;99.90;;;;;;6156893;23;20053;-84
2022/01/24 05:50:53;;;;;;;11.95;8.82;;;4.90;99.90;;;;;;6155438;23;20014;-84
2022/01/24 05:53:18;;;;;;;10.93;9.18;;;4.90;99.90;;;;;;6154328;23;20454;-84
2022/01/24 05:55:44;;;;;;;12.35;9.38;;;4.90;99.90;;;;;;6155552;23;20069;-84
2022/01/24 05:58:10;;;;;;;12.05;8.98;;;5.00;99.90;;;;;;6155377;23;20512;-85
2022/01/24 06:00:36;;;;;;;12.52;8.77;;;4.90;99.90;;;;;;6154232;23;20017;-84
2022/01/24 06:03:02;;;;;;;10.77;8.45;;;4.90;99.90;;;;;;6155189;23;20018;-84
2022/01/24 06:05:27;;;;;;;10.43;8.50;;;5.00;99.90;;;;;;6154278;23;20064;-84
2022/01/24 06:07:55;;;;;;;13.20;9.05;;;4.90;99.90;;;;;;6155933;23;20021;-84
2022/01/24 06:10:20;;;;;;;11.27;8.80;;;5.20;99.90;;;;;;6154920;23;20096;-84
2022/01/24 06:12:46;;;;;;;13.15;9.05;;;4.90;99.90;;;;;;6153969;23;20052;-84
2022/01/24 06:15:12;;;;;;;12.02;8.75;;;5.30;99.90;;;;;;6155527;23;20017;-84
2022/01/24 06:17:39;;;;;;;10.63;8.68;;;5.50;99.90;;;;;;6156828;23;20086;-84
2022/01/24 06:20:06;;;;;;;10.68;8.20;;;4.90;99.90;;;;;;6154105;23;20017;-80
2022/01/24 06:22:32;;;;;;;9.82;8.15;;;4.90;99.90;;;;;;6156428;23;20022;-81
2022/01/24 06:24:58;;;;;;;12.40;9.02;;;5.00;99.90;;;;;;6156843;23;20371;-81
2022/01/24 06:27:23;;;;;;;12.30;8.18;;;4.90;99.90;;;;;;6153887;23;20064;-80
2022/01/24 06:29:49;;;;;;;9.60;8.07;;;4.90;99.90;;;;;;6155077;23;20017;-82
2022/01/24 06:32:15;;;;;;;13.40;9.38;;;4.90;99.90;;;;;;6154944;23;20092;-82
2022/01/24 06:34:40;;;;;;;12.10;9.13;;;4.90;99.90;;;;;;6154030;23;20021;-83
2022/01/24 06:37:06;;;;;;;13.15;9.00;;;5.30;99.90;;;;;;6154843;23;20022;-83
2022/01/24 06:39:33;;;;;;;13.65;9.52;;;4.90;99.90;;;;;;6156685;23;20013;-83
2022/01/24 06:42:11;;;;;;;13.18;9.10;;;4.90;99.90;;;;;;6154298;23;20056;-83
2022/01/24 06:44:37;;;;;;;13.73;10.73;;;4.90;99.90;;;;;;6130472;23;20101;-83
2022/01/24 06:47:03;;;;;;;13.80;10.23;;;5.40;99.90;;;;;;6155140;23;20045;-82
2022/01/24 06:49:29;;;;;;;15.10;10.95;;;4.90;99.90;;;;;;6155266;23;20465;-83
2022/01/24 06:51:55;;;;;;;14.00;11.02;;;4.90;99.90;;;;;;6155053;23;20021;-80
2022/01/24 06:54:20;;;;;;;18.40;11.68;;;5.00;99.90;;;;;;6154556;23;20059;-82
2022/01/24 06:56:46;;;;;;;13.38;10.32;;;4.90;99.90;;;;;;6155325;23;20018;-83
2022/01/24 06:59:12;;;;;;;17.92;12.57;;;4.90;99.90;;;;;;6156589;23;20084;-81
2022/01/24 07:01:37;;;;;;;17.13;12.75;;;4.90;99.90;;;;;;6129140;23;20080;-83
2022/01/24 07:04:06;;;;;;;15.50;11.95;;;5.40;99.90;;;;;;6152139;23;20013;-82
2022/01/24 07:06:32;;;;;;;15.10;10.95;;;4.90;99.90;;;;;;6155365;23;20022;-83
2022/01/24 07:08:57;;;;;;;15.10;11.57;;;4.90;99.90;;;;;;6159309;23;20017;-83
2022/01/24 07:11:23;;;;;;;15.18;11.70;;;4.90;99.90;;;;;;6159466;23;20032;-83
2022/01/24 07:13:50;;;;;;;14.57;11.07;;;4.80;99.90;;;;;;6134669;23;20028;-82
2022/01/24 07:16:17;;;;;;;13.35;10.25;;;4.90;99.90;;;;;;6158300;23;20079;-83
2022/01/24 07:18:58;;;;;;;15.75;11.95;;;4.90;99.90;;;;;;6159292;23;20021;-83
2022/01/24 07:21:30;;;;;;;16.80;10.50;;;4.90;99.90;;;;;;6159495;23;20016;-83
2022/01/24 07:23:56;;;;;;;13.20;9.90;;;4.80;99.90;;;;;;6158179;23;20017;-82
2022/01/24 07:26:28;;;;;;;12.63;10.05;;;4.80;99.90;;;;;;6158750;23;20025;-83
2022/01/24 07:28:54;;;;;;;17.17;11.70;;;4.80;99.90;;;;;;6185319;23;20454;-83
2022/01/24 07:31:20;;;;;;;13.90;11.30;;;4.80;99.90;;;;;;6158389;23;20143;-83
2022/01/24 07:33:45;;;;;;;13.25;10.57;;;4.80;99.90;;;;;;6159116;23;20028;-83
2022/01/24 07:36:11;;;;;;;16.60;12.27;;;4.80;99.90;;;;;;6159297;23;20017;-83
2022/01/24 07:38:40;;;;;;;18.17;10.40;;;4.80;99.90;;;;;;6157874;23;20028;-83
2022/01/24 07:41:09;;;;;;;16.45;11.20;;;4.80;99.90;;;;;;6185513;23;20016;-83
2022/01/24 07:43:35;;;;;;;15.73;10.98;;;4.80;99.90;;;;;;6159209;23;20021;-82
2022/01/24 07:46:01;;;;;;;13.90;11.43;;;4.80;99.90;;;;;;6158281;23;20384;-82
2022/01/24 07:48:26;;;;;;;13.05;10.25;;;4.80;99.90;;;;;;6159145;23;20028;-82
2022/01/24 07:50:52;;;;;;;15.88;11.88;;;5.20;99.90;;;;;;6157821;23;20338;-83
2022/01/24 07:53:20;;;;;;;13.75;10.18;;;4.80;99.90;;;;;;6159173;23;20087;-83
2022/01/24 07:55:49;;;;;;;14.80;9.90;;;4.80;99.90;;;;;;6158740;23;20434;-83
2022/01/24 07:58:15;;;;;;;12.27;10.20;;;4.80;99.90;;;;;;6184421;23;20057;-83
2022/01/24 08:00:41;;;;;;;16.33;10.65;;;4.80;99.90;;;;;;6159059;23;20017;-83
2022/01/24 08:03:07;;;;;;;16.60;11.45;;;4.80;99.90;;;;;;6158811;23;20405;-83
2022/01/24 08:05:35;;;;;;;19.05;12.75;;;4.80;99.90;;;;;;6184423;23;20449;-83
2022/01/24 08:08:01;;;;;;;15.73;12.68;;;4.80;99.90;;;;;;6159062;23;20017;-83
2022/01/24 08:10:27;;;;;;;16.58;11.85;;;4.80;99.90;;;;;;6155469;23;20025;-83
2022/01/24 08:12:52;;;;;;;17.95;12.00;;;4.80;99.90;;;;;;6155044;23;20028;-83
2022/01/24 08:15:18;;;;;;;15.50;11.95;;;4.80;99.90;;;;;;6156050;23;20096;-83
2022/01/24 08:17:47;;;;;;;13.73;10.63;;;4.90;99.90;;;;;;6156207;23;20022;-83
2022/01/24 08:20:15;;;;;;;14.20;11.07;;;4.90;99.90;;;;;;6155033;23;20013;-83
2022/01/24 08:22:42;;;;;;;15.48;11.68;;;4.90;99.90;;;;;;6131395;23;20026;-83
2022/01/24 08:25:09;;;;;;;14.60;11.40;;;4.80;99.90;;;;;;6155700;23;20013;-83
2022/01/24 08:27:38;;;;;;;15.05;10.57;;;4.80;99.90;;;;;;6155078;23;20072;-83
2022/01/24 08:30:08;;;;;;;17.75;12.02;;;4.90;99.90;;;;;;6155930;23;20021;-83
2022/01/24 08:32:34;;;;;;;15.20;11.65;;;4.90;99.90;;;;;;6157390;23;20132;-83
2022/01/24 08:35:03;;;;;;;16.33;12.43;;;4.80;99.90;;;;;;6155054;23;20045;-83
2022/01/24 08:37:30;;;;;;;14.10;10.77;;;4.90;99.90;;;;;;6155923;23;20018;-83
2022/01/24 08:39:58;;;;;;;21.35;12.85;;;4.80;99.90;;;;;;6155721;23;20021;-82
2022/01/24 08:42:53;;;;;;;19.33;13.95;;;4.80;99.90;;;;;;6154984;23;20029;-83
2022/01/24 08:48:03;;;;;;;29.88;19.33;;;4.90;99.90;;;;;;6156686;23;20024;-83
2022/01/24 08:50:29;;;;;;;23.83;16.83;;;4.90;99.90;;;;;;6157650;23;20049;-82
2022/01/24 08:52:59;;;;;;;25.10;19.25;;;4.90;99.90;;;;;;6157439;23;20044;-83
2022/01/24 08:55:33;;;;;;;31.23;19.70;;;5.00;99.90;;;;;;6154635;23;20060;-83
2022/01/24 08:57:59;;;;;;;27.13;19.65;;;5.00;99.90;;;;;;6155747;23;20354;-83
2022/01/24 09:00:26;;;;;;;29.10;19.13;;;5.00;99.90;;;;;;6155443;23;20435;-83
2022/01/24 09:02:52;;;;;;;25.85;19.25;;;5.00;99.90;;;;;;6156468;23;20021;-83
2022/01/24 09:05:21;;;;;;;27.38;19.33;;;5.00;99.90;;;;;;6155588;23;20446;-83
2022/01/24 09:07:47;;;;;;;24.92;19.00;;;5.10;99.90;;;;;;6157856;23;20021;-83
2022/01/24 09:10:13;;;;;;;26.63;18.65;;;5.10;99.90;;;;;;6154140;23;20020;-83
2022/01/24 09:12:39;;;;;;;26.08;18.75;;;5.10;99.90;;;;;;6155440;23;20047;-83
2022/01/24 09:15:05;;;;;;;27.95;19.88;;;5.10;99.90;;;;;;6157358;23;20024;-83
2022/01/24 09:17:31;;;;;;;28.08;20.58;;;5.10;99.90;;;;;;6156537;23;20104;-82
2022/01/24 09:19:59;;;;;;;30.50;20.83;;;5.20;99.90;;;;;;6155125;23;20041;-82
2022/01/24 09:22:25;;;;;;;34.92;22.02;;;5.10;99.90;;;;;;6154457;23;20022;-83
2022/01/24 09:24:51;;;;;;;34.60;22.83;;;5.20;99.90;;;;;;6157228;23;20076;-83
2022/01/24 09:27:17;;;;;;;32.03;23.05;;;5.20;99.90;;;;;;6155333;23;20442;-83
2022/01/24 09:29:42;;;;;;;37.05;24.23;;;5.20;99.90;;;;;;6154541;23;20029;-83
2022/01/24 09:32:09;;;;;;;35.67;23.60;;;5.20;99.90;;;;;;6155646;23;20018;-82
2022/01/24 09:34:34;;;;;;;31.90;22.42;;;5.30;99.90;;;;;;6155943;23;20453;-83
2022/01/24 09:37:00;;;;;;;33.80;23.65;;;5.30;99.90;;;;;;6155779;23;20021;-83
2022/01/24 09:39:26;;;;;;;38.15;23.85;;;5.40;99.90;;;;;;6156588;23;20153;-83
2022/01/24 09:41:53;;;;;;;35.63;22.42;;;5.30;99.90;;;;;;6155027;23;20061;-83
2022/01/24 09:44:19;;;;;;;35.65;23.65;;;5.30;99.90;;;;;;6154314;23;20084;-83
2022/01/24 09:46:46;;;;;;;34.67;23.30;;;5.30;99.90;;;;;;6155130;23;20028;-83
2022/01/24 09:49:12;;;;;;;33.05;23.35;;;5.30;99.90;;;;;;6155129;23;20021;-83
2022/01/24 09:51:39;;;;;;;33.53;23.45;;;5.80;99.90;;;;;;6156030;23;20028;-83
2022/01/24 09:54:06;;;;;;;38.17;23.23;;;5.60;99.90;;;;;;6156502;23;20021;-83
2022/01/24 09:56:34;;;;;;;33.97;23.88;;;5.40;99.90;;;;;;6155156;23;20017;-82
2022/01/24 09:59:00;;;;;;;36.30;24.40;;;5.40;99.90;;;;;;6154118;23;20453;-82
2022/01/24 10:01:27;;;;;;;37.75;25.35;;;5.40;99.90;;;;;;6155054;23;20021;-83
2022/01/24 10:04:17;;;;;;;36.30;25.13;;;5.40;99.90;;;;;;6156962;23;20014;-83
2022/01/24 10:06:55;;;;;;;36.88;23.88;;;5.50;99.90;;;;;;6155800;23;20096;-82
2022/01/24 10:10:00;;;;;;;38.00;24.83;;;5.50;99.90;;;;;;6165150;23;20068;-80
2022/01/24 10:17:59;;;;;;;39.58;25.27;;;5.50;99.90;;;;;;6119951;23;20028;-84
2022/01/24 10:20:27;;;;;;;37.30;25.38;;;5.50;99.90;;;;;;6159005;23;20029;-84
2022/01/24 10:23:20;;;;;;;37.00;24.70;;;5.50;99.90;;;;;;6159711;23;20056;-85
2022/01/24 10:25:46;;;;;;;38.92;25.05;;;5.60;99.90;;;;;;6185091;23;20381;-84
2022/01/24 10:28:11;;;;;;;41.75;25.33;;;5.60;99.90;;;;;;6159602;23;20017;-84
2022/01/24 10:30:37;;;;;;;38.10;26.33;;;5.60;99.90;;;;;;6186357;23;20033;-83
2022/01/24 10:33:04;;;;;;;46.00;27.88;;;5.60;99.90;;;;;;6158580;23;20400;-83
2022/01/24 10:35:45;;;;;;;43.10;27.58;;;5.60;99.90;;;;;;6186044;23;20027;-83
2022/01/24 10:38:42;;;;;;;44.58;29.15;;;5.70;99.90;;;;;;6159771;23;20024;-84
2022/01/24 10:43:39;;;;;;;42.28;29.27;;;5.70;99.90;;;;;;6185828;23;20346;-84
2022/01/24 10:46:07;;;;;;;43.70;29.00;;;5.70;99.90;;;;;;6186040;23;20118;-84
2022/01/24 10:48:49;;;;;;;43.05;28.40;;;5.70;99.90;;;;;;6185622;23;20032;-84
2022/01/24 10:51:21;;;;;;;46.85;31.02;;;5.70;99.90;;;;;;6159772;23;20021;-84
2022/01/24 10:53:50;;;;;;;47.17;31.10;;;5.70;99.90;;;;;;6184785;23;20476;-84
2022/01/24 10:56:34;;;;;;;43.92;30.88;;;5.70;99.90;;;;;;6159676;23;20096;-84
2022/01/24 10:59:11;;;;;;;49.17;31.73;;;5.70;99.90;;;;;;6159695;23;20100;-84
2022/01/24 11:01:38;;;;;;;49.38;31.88;;;5.70;99.90;;;;;;6158577;23;20354;-84
2022/01/24 11:04:09;;;;;;;49.38;32.38;;;5.70;99.90;;;;;;6159628;23;20017;-84
2022/01/24 11:06:42;;;;;;;50.17;32.08;;;6.20;99.90;;;;;;6159622;23;20341;-84
2022/01/24 11:09:14;;;;;;;47.28;30.73;;;5.70;99.90;;;;;;6128855;23;20045;-84
2022/01/24 11:11:40;;;;;;;49.63;33.00;;;5.80;99.90;;;;;;6156408;23;20061;-83
2022/01/24 11:14:10;;;;;;;47.15;32.35;;;5.80;99.90;;;;;;6154633;23;20053;-84
2022/01/24 11:16:39;;;;;;;49.63;30.98;;;5.80;99.90;;;;;;6153296;23;20061;-84
2022/01/24 11:19:12;;;;;;;48.88;31.05;;;5.80;99.90;;;;;;6154474;23;20036;-84
2022/01/24 11:21:39;;;;;;;52.33;31.88;;;5.80;99.90;;;;;;6156364;23;20096;-84
2022/01/24 11:24:07;;;;;;;47.72;31.33;;;5.80;99.90;;;;;;6155252;23;20389;-84
2022/01/24 11:26:34;;;;;;;47.28;32.28;;;5.80;99.90;;;;;;6156382;23;20017;-84
2022/01/24 11:29:01;;;;;;;52.15;32.72;;;5.80;99.90;;;;;;6153403;23;20032;-84
2022/01/24 11:31:33;;;;;;;53.03;33.50;;;5.90;99.90;;;;;;6156003;23;20088;-84
2022/01/24 11:34:31;;;;;;;49.45;31.48;;;6.10;99.90;;;;;;6155854;23;20092;-84
2022/01/24 11:36:58;;;;;;;46.10;31.25;;;5.80;99.90;;;;;;6153305;23;20021;-84
2022/01/24 11:39:25;;;;;;;51.70;32.25;;;5.80;99.90;;;;;;6129664;23;20018;-83
2022/01/24 11:41:51;;;;;;;45.97;30.27;;;5.80;99.90;;;;;;6154318;23;20018;-84
2022/01/24 11:44:20;;;;;;;53.88;31.27;;;5.90;99.90;;;;;;6154189;23;20039;-83
2022/01/24 11:46:58;;;;;;;45.97;30.75;;;5.90;99.90;;;;;;6158165;23;20027;-83
2022/01/24 11:49:27;;;;;;;50.53;32.47;;;5.90;99.90;;;;;;6156364;23;20342;-83
2022/01/24 11:52:16;;;;;;;42.47;28.83;;;5.80;99.90;;;;;;6157039;23;20089;-83
2022/01/24 11:54:48;;;;;;;47.25;29.95;;;5.80;99.90;;;;;;6156398;23;20442;-83
2022/01/24 11:57:24;;;;;;;44.03;29.58;;;5.80;99.90;;;;;;6155336;23;20345;-83
2022/01/24 12:00:09;;;;;;;46.08;28.77;;;5.90;99.90;;;;;;6157691;23;20021;-82
2022/01/24 12:02:53;;;;;;;36.30;25.70;;;5.90;99.90;;;;;;6157666;23;20025;-80
2022/01/24 12:05:40;;;;;;;38.33;25.45;;;5.90;99.90;;;;;;6155605;23;20025;-81
2022/01/24 12:08:10;;;;;;;36.63;24.75;;;5.80;99.90;;;;;;6156172;23;20017;-79
2022/01/24 12:10:43;;;;;;;40.63;25.85;;;5.90;99.90;;;;;;6181949;23;20079;-78
2022/01/24 12:13:35;;;;;;;38.47;24.50;;;5.90;99.90;;;;;;6160136;23;20025;-77
2022/01/24 12:16:06;;;;;;;41.55;25.80;;;5.90;99.90;;;;;;6160503;23;20073;-78
2022/01/24 12:18:33;;;;;;;38.95;27.15;;;5.90;99.90;;;;;;6160136;23;20096;-77
2022/01/24 12:21:05;;;;;;;40.22;27.27;;;5.90;99.90;;;;;;6160894;23;20013;-78
2022/01/24 12:23:32;;;;;;;41.97;26.88;;;5.90;99.90;;;;;;6187802;23;20092;-77
2022/01/24 12:26:08;;;;;;;38.42;26.05;;;5.90;99.90;;;;;;6186494;23;20032;-79
2022/01/24 12:28:43;;;;;;;41.67;27.27;;;5.90;99.90;;;;;;6161046;23;20024;-79
2022/01/24 12:31:22;;;;;;;37.13;25.27;;;5.90;99.90;;;;;;6186764;23;20017;-77
2022/01/24 12:33:53;;;;;;;38.72;25.20;;;5.90;99.90;;;;;;6186500;23;20021;-80
2022/01/24 12:36:47;;;;;;;38.92;25.77;;;5.90;99.90;;;;;;6187194;23;20057;-80
2022/01/24 12:39:17;;;;;;;39.97;26.88;;;5.90;99.90;;;;;;6158337;23;20060;-80
2022/01/24 12:41:48;;;;;;;43.78;26.80;;;5.90;99.90;;;;;;6187551;23;20013;-80
2022/01/24 12:47:06;;;;;;;40.00;26.17;;;6.00;99.90;;;;;;6186509;23;20075;-80
2022/01/24 12:49:33;;;;;;;35.58;24.88;;;5.90;99.90;;;;;;6160880;23;20025;-80
2022/01/24 12:52:00;;;;;;;36.10;24.33;;;5.90;99.90;;;;;;6187378;23;20013;-80
2022/01/24 12:54:31;;;;;;;40.05;25.55;;;5.90;99.90;;;;;;6186426;23;20021;-80
2022/01/24 12:57:02;;;;;;;41.35;26.10;;;5.90;99.90;;;;;;6187465;23;20306;-80
2022/01/24 12:59:28;;;;;;;39.83;25.45;;;5.90;99.90;;;;;;6187477;23;20021;-80
2022/01/24 13:01:57;;;;;;;40.35;25.83;;;5.90;99.90;;;;;;6186136;23;20049;-80
2022/01/24 13:04:31;;;;;;;34.50;23.88;;;5.90;99.90;;;;;;6187372;23;20075;-80
2022/01/24 13:06:58;;;;;;;43.58;26.63;;;5.90;99.90;;;;;;6186890;23;20173;-80
2022/01/24 13:09:27;;;;;;;40.05;28.00;;;5.80;99.90;;;;;;6185799;23;20021;-80
2022/01/24 13:12:00;;;;;;;42.55;28.60;;;5.80;99.90;;;;;;6160318;23;20024;-80
2022/01/24 13:22:48;;;;;;;41.00;26.65;;;5.80;99.90;;;;;;6185752;23;20060;-80
2022/01/24 13:25:15;;;;;;;38.28;25.83;;;5.80;99.90;;;;;;6186563;23;20017;-80
2022/01/24 13:27:47;;;;;;;36.58;25.63;;;5.80;99.90;;;;;;6186901;23;20032;-80
2022/01/24 13:30:16;;;;;;;46.22;26.75;;;5.80;99.90;;;;;;6159625;23;20024;-80
2022/01/24 13:32:42;;;;;;;39.60;27.65;;;5.90;99.90;;;;;;6186755;23;20031;-81
2022/01/24 13:35:26;;;;;;;48.00;30.50;;;5.80;99.90;;;;;;6186280;23;20053;-81
2022/01/24 13:37:59;;;;;;;52.58;33.42;;;5.80;99.90;;;;;;6160244;23;20025;-80
2022/01/24 13:40:53;;;;;;;44.88;30.02;;;5.80;99.90;;;;;;6160652;23;20091;-80
2022/01/24 13:43:44;;;;;;;46.58;28.65;;;5.80;99.90;;;;;;6186019;23;20013;-80
2022/01/24 13:46:13;;;;;;;47.92;30.67;;;5.80;99.90;;;;;;6186990;23;20025;-80
2022/01/24 13:48:40;;;;;;;42.00;27.60;;;5.70;99.90;;;;;;6186951;23;20017;-80
2022/01/24 13:51:07;;;;;;;43.35;28.50;;;5.70;99.90;;;;;;6185683;23;20028;-80
2022/01/24 13:53:37;;;;;;;38.65;25.23;;;5.80;99.90;;;;;;6186372;23;20457;-81
2022/01/24 13:56:40;;;;;;;43.00;26.88;;;5.70;99.90;;;;;;6186698;23;20433;-81
2022/01/24 13:59:10;;;;;;;39.08;25.67;;;5.70;99.90;;;;;;6111018;23;20025;-80
2022/01/24 14:01:58;;;;;;;41.67;29.15;;;5.70;99.90;;;;;;6160030;23;20028;-80
2022/01/24 14:04:28;;;;;;;48.83;31.15;;;5.70;99.90;;;;;;6160970;23;20059;-80
2022/01/24 14:07:00;;;;;;;46.45;30.63;;;5.60;99.90;;;;;;6159614;23;20021;-80
2022/01/24 14:09:49;;;;;;;48.00;31.92;;;5.70;99.90;;;;;;6185919;23;20013;-80
2022/01/24 14:12:19;;;;;;;52.25;30.27;;;5.70;99.90;;;;;;6185229;23;20023;-80
2022/01/24 14:14:55;;;;;;;45.85;30.27;;;5.70;99.90;;;;;;6186288;23;20056;-80
2022/01/24 14:17:38;;;;;;;49.58;31.85;;;5.60;99.90;;;;;;6186505;23;20017;-80
2022/01/24 14:20:08;;;;;;;48.63;32.25;;;5.60;99.90;;;;;;6186572;23;20031;-80
2022/01/24 14:22:45;;;;;;;51.42;32.53;;;5.60;99.90;;;;;;6186509;23;20017;-80
2022/01/24 14:25:16;;;;;;;48.35;33.38;;;5.60;99.90;;;;;;6185091;23;20096;-80
2022/01/24 14:27:54;;;;;;;51.30;33.65;;;5.60;99.90;;;;;;6186136;23;20024;-80
2022/01/24 14:30:30;;;;;;;49.55;31.45;;;5.60;99.90;;;;;;6186616;23;20430;-80
2022/01/24 14:33:22;;;;;;;48.40;31.73;;;5.60;99.90;;;;;;6158701;23;20021;-80
2022/01/24 14:36:13;;;;;;;49.58;31.73;;;5.60;99.90;;;;;;6186125;23;20056;-80
2022/01/24 14:38:44;;;;;;;52.80;34.42;;;5.60;99.90;;;;;;6186262;23;20339;-80
2022/01/24 14:41:31;;;;;;;51.45;33.63;;;5.60;99.90;;;;;;6186451;23;20021;-80
2022/01/24 14:46:44;;;;;;;52.90;34.53;;;5.50;99.90;;;;;;6158915;23;20055;-80
2022/01/24 14:49:23;;;;;;;53.60;36.15;;;5.50;99.90;;;;;;6159504;23;20471;-81
2022/01/24 14:51:51;;;;;;;57.55;35.53;;;5.50;99.90;;;;;;6159700;23;20016;-81
2022/01/24 14:54:27;;;;;;;53.63;34.58;;;5.50;99.90;;;;;;6158472;23;20092;-81
2022/01/24 14:56:59;;;;;;;56.35;35.13;;;5.50;99.90;;;;;;6185957;23;20069;-81
2022/01/24 14:59:26;;;;;;;53.88;35.60;;;5.50;99.90;;;;;;6159428;23;20096;-81
2022/01/24 15:01:53;;;;;;;50.92;33.25;;;4.80;99.90;;;;;;6185405;23;20075;-80
2022/01/24 15:04:19;;;;;;;56.80;34.97;;;5.50;99.90;;;;;;6158991;23;20025;-81